メインページ
METAR-TAF:

METAR-TAF

空港 :

トレントン, オンタリオ州, カナダ

緯度: 44-07N, 経度: 077-32W, 海抜: 85m

現時点の気象観測

当レポートは22分前の21:00(UTC)に作成
西の風 18kt、最大24ktの突風を伴う
気温 27°C
湿度 26%
気圧 1015 hPa
視程: 24.1km
高度4000ftの雲はほとんどない

METAR: CYTR 192100Z 27018G24KT 15SM FEW040 27/06 A2996 RMK CU1 SLP145

時間: 17:22 (21:22 UTC)

予報

当レポートは3時間52分前の17:30(UTC)に作成
予報は19日の 18時(UTC)から 20日の 18時(UTC)まで有効
南西の風 12kt
視程: 10km
高度2000ftの雲は散在している
19日の 18時(UTC)から 19日の 20時(UTC)まで一時的に
高度2000ftの千切れ雲あり
19日の 2100時(UTC)から
西の風 12kt
視程: 10km
晴天
19日の 23時(UTC)から 20日の 01時(UTC)まで徐々に
北西の風 8kt
20日の 02時(UTC)から 20日の 04時(UTC)まで徐々に
変向風 3kt
20日の 1500時(UTC)から
南/南西の風 5kt
視程: 10km
高度4000ftの雲は散在している

TAF: CYTR 191730Z 1918/2018 22012KT P6SM SCT020 TEMPO 1918/1920 BKN020 FM192100 27012KT P6SM SKC BECMG 1923/2001 31008KT BECMG 2002/2004 VRB03KT FM201500 20005KT P6SM SCT040 RMK NXT FCST BY 200000Z

4,000以上の空港の気象観測と天気予報(METAR報とTAF報)

利用可能な観測所は地図上に黄色い丸と赤い丸で示す。

丸の上にカーソルを重ねると観測所名を参照できる。

次にクリックすると気象観測と天気予報を参照できる。

マップの切り替え:黒色「×」印の緑ボタンをクリックして拡大、「-」印の緑ボタンをクリックして縮小、緑色の三角印をクリックして隣りの地図に切り替え


METAR-TAF: